Time;durP1;ratioP1;P1;durP2;ratioP2;P2;SDS_P1;SDS_P2;PMS_P1;PMS_P2;Temp;Humidity;BMP_temperature;BMP_pressure;BME280_temperature;BME280_humidity;BME280_pressure;Samples;Min_cycle;Max_cycle;Signal;HPM_P1;HPM_P2
2023/03/10 00:00:30;;;;;;;2.50;1.53;;;8.70;99.90;;;;;;480243;247;27514;-77
2023/03/10 00:02:33;;;;;;;3.53;1.40;;;8.60;99.90;;;;;;480241;247;27912;-78
2023/03/10 00:04:32;;;;;;;2.70;1.40;;;8.60;99.90;;;;;;476993;248;27842;-77
2023/03/10 00:06:33;;;;;;;3.20;1.53;;;8.60;99.90;;;;;;480276;246;27862;-78
2023/03/10 00:08:35;;;;;;;2.30;1.60;;;8.60;99.90;;;;;;477015;248;27803;-78
2023/03/10 00:10:37;;;;;;;3.53;1.50;;;8.60;99.90;;;;;;480194;247;27986;-78
2023/03/10 00:12:37;;;;;;;2.60;1.50;;;8.70;99.90;;;;;;476982;248;27888;-78
2023/03/10 00:14:38;;;;;;;4.10;1.40;;;8.60;99.90;;;;;;480222;246;28535;-79
2023/03/10 00:16:40;;;;;;;1.50;1.20;;;8.70;99.90;;;;;;476998;248;28268;-78
2023/03/10 00:18:41;;;;;;;2.93;1.30;;;8.70;99.90;;;;;;480246;246;28217;-78
2023/03/10 00:20:42;;;;;;;2.93;1.27;;;8.70;99.90;;;;;;477029;248;28296;-78
2023/03/10 00:22:43;;;;;;;1.20;1.10;;;8.60;99.90;;;;;;480185;246;27994;-78
2023/03/10 00:24:45;;;;;;;3.03;1.40;;;8.60;99.90;;;;;;477051;248;28369;-78
2023/03/10 00:26:46;;;;;;;3.50;1.50;;;8.70;99.90;;;;;;480280;246;28039;-78
2023/03/10 00:28:47;;;;;;;1.80;1.40;;;8.70;99.90;;;;;;477057;248;27347;-78
2023/03/10 00:30:48;;;;;;;2.20;1.20;;;8.70;99.90;;;;;;480237;246;27513;-78
2023/03/10 00:32:50;;;;;;;1.30;1.20;;;8.70;99.90;;;;;;477052;248;27587;-78
2023/03/10 00:34:51;;;;;;;1.50;1.40;;;8.70;99.90;;;;;;480203;246;27996;-77
2023/03/10 00:36:52;;;;;;;1.40;1.30;;;8.70;99.90;;;;;;477054;248;27818;-78
2023/03/10 00:38:53;;;;;;;3.23;1.33;;;8.70;99.90;;;;;;480259;246;27981;-78
2023/03/10 00:40:55;;;;;;;3.23;1.30;;;8.70;99.90;;;;;;477045;248;27565;-77
2023/03/10 00:42:58;;;;;;;1.00;1.00;;;8.70;99.90;;;;;;480197;246;27913;-78
2023/03/10 00:44:57;;;;;;;1.40;1.30;;;8.70;99.90;;;;;;476883;249;27948;-78
2023/03/10 00:46:58;;;;;;;1.47;1.37;;;8.70;99.90;;;;;;480240;246;27768;-78
2023/03/10 00:49:00;;;;;;;1.50;1.10;;;8.80;99.90;;;;;;477052;248;27866;-79
2023/03/10 00:51:01;;;;;;;2.50;1.20;;;8.70;99.90;;;;;;480247;246;27823;-78
2023/03/10 00:53:02;;;;;;;1.17;1.10;;;8.70;99.90;;;;;;477044;248;28351;-77
2023/03/10 00:55:04;;;;;;;1.70;1.27;;;8.70;99.90;;;;;;480245;245;28334;-77
2023/03/10 00:57:05;;;;;;;3.77;1.60;;;8.70;99.90;;;;;;477060;248;27642;-78
2023/03/10 00:59:06;;;;;;;1.20;1.20;;;8.70;99.90;;;;;;480218;246;28030;-77
2023/03/10 01:01:07;;;;;;;1.40;1.30;;;8.70;99.90;;;;;;476927;248;27844;-77
2023/03/10 01:03:09;;;;;;;1.10;1.10;;;8.70;99.90;;;;;;480239;246;27739;-77
2023/03/10 01:05:10;;;;;;;1.20;1.13;;;8.60;99.90;;;;;;480275;247;27912;-79
2023/03/10 01:07:11;;;;;;;1.30;1.20;;;8.60;99.90;;;;;;477061;248;27871;-78
2023/03/10 01:09:12;;;;;;;2.07;1.47;;;8.60;99.90;;;;;;480203;247;27925;-77
2023/03/10 01:11:14;;;;;;;1.30;1.20;;;8.60;99.90;;;;;;477059;248;27943;-76
2023/03/10 01:13:15;;;;;;;2.27;1.57;;;8.60;99.90;;;;;;480214;246;27789;-77
2023/03/10 01:15:16;;;;;;;1.80;1.30;;;8.50;99.90;;;;;;477046;248;27901;-78
2023/03/10 01:17:17;;;;;;;2.37;1.27;;;8.60;99.90;;;;;;480228;246;28083;-77
2023/03/10 01:19:19;;;;;;;1.43;1.20;;;8.60;99.90;;;;;;477045;248;27478;-77
2023/03/10 01:21:20;;;;;;;2.70;1.30;;;8.60;99.90;;;;;;480224;246;28378;-77
2023/03/10 01:23:21;;;;;;;3.53;1.43;;;8.50;99.90;;;;;;477027;248;28443;-78
2023/03/10 01:25:22;;;;;;;1.30;1.10;;;8.60;99.90;;;;;;480261;246;27930;-78
2023/03/10 01:27:24;;;;;;;1.60;1.50;;;8.50;99.90;;;;;;477067;248;28006;-77
2023/03/10 01:29:25;;;;;;;3.50;1.30;;;8.50;99.90;;;;;;480286;246;28325;-76
2023/03/10 01:31:27;;;;;;;2.93;1.57;;;8.60;99.90;;;;;;477110;248;28315;-77
2023/03/10 01:33:28;;;;;;;1.43;1.30;;;8.60;99.90;;;;;;480266;246;28260;-77
2023/03/10 01:35:29;;;;;;;2.40;1.30;;;8.60;99.90;;;;;;477075;248;28290;-77
2023/03/10 01:37:30;;;;;;;1.43;1.33;;;8.60;99.90;;;;;;480252;246;27848;-77
2023/03/10 01:39:32;;;;;;;5.37;1.33;;;8.60;99.90;;;;;;477020;248;27705;-77
2023/03/10 01:41:33;;;;;;;1.73;1.37;;;8.60;99.90;;;;;;480260;246;27917;-77
2023/03/10 01:43:34;;;;;;;3.23;1.47;;;8.60;99.90;;;;;;477103;248;27877;-78
2023/03/10 01:45:35;;;;;;;1.17;1.07;;;8.60;99.90;;;;;;480255;246;27947;-77
2023/03/10 01:47:37;;;;;;;1.80;1.10;;;8.60;99.90;;;;;;477046;248;27641;-77
2023/03/10 01:49:38;;;;;;;2.20;1.20;;;8.60;99.90;;;;;;480133;247;27945;-78
2023/03/10 01:51:39;;;;;;;2.23;1.33;;;8.60;99.90;;;;;;477075;248;27833;-77
2023/03/10 01:53:40;;;;;;;5.30;1.33;;;8.60;99.90;;;;;;480231;247;27890;-78
2023/03/10 01:55:42;;;;;;;5.33;1.33;;;8.60;99.90;;;;;;477061;248;27788;-77
2023/03/10 01:57:43;;;;;;;2.93;1.43;;;8.60;99.90;;;;;;480215;246;27610;-77
2023/03/10 01:59:44;;;;;;;2.30;1.80;;;8.60;99.90;;;;;;477019;247;27905;-77
2023/03/10 02:01:45;;;;;;;2.23;1.50;;;8.60;99.90;;;;;;480250;246;27755;-77
2023/03/10 02:03:47;;;;;;;4.00;1.53;;;8.60;99.90;;;;;;477030;248;28186;-77
2023/03/10 02:05:49;;;;;;;2.40;1.37;;;8.60;99.90;;;;;;480190;246;27913;-75
2023/03/10 02:07:50;;;;;;;2.73;1.67;;;8.60;99.90;;;;;;477063;248;27890;-78
2023/03/10 02:09:51;;;;;;;2.50;1.50;;;8.70;99.90;;;;;;480003;247;27767;-77
2023/03/10 02:11:52;;;;;;;6.10;1.60;;;8.70;99.90;;;;;;476984;248;28384;-78
2023/03/10 02:13:54;;;;;;;3.20;1.50;;;8.70;99.90;;;;;;480036;247;28291;-77
2023/03/10 02:15:56;;;;;;;2.73;1.70;;;8.70;99.90;;;;;;480257;247;28329;-78
2023/03/10 02:17:57;;;;;;;2.50;1.60;;;8.70;99.90;;;;;;480149;247;27782;-75
2023/03/10 02:19:58;;;;;;;3.53;1.50;;;8.70;99.90;;;;;;477088;248;27687;-76
2023/03/10 02:21:59;;;;;;;1.50;1.33;;;8.70;99.90;;;;;;480231;246;27901;-77
2023/03/10 02:24:01;;;;;;;1.80;1.40;;;8.70;99.90;;;;;;477037;248;28151;-78
2023/03/10 02:26:02;;;;;;;4.23;1.80;;;8.70;99.90;;;;;;480207;246;28416;-77
2023/03/10 02:28:03;;;;;;;3.50;1.43;;;8.70;99.90;;;;;;477052;248;28391;-79
2023/03/10 02:30:04;;;;;;;2.00;1.87;;;8.70;99.90;;;;;;480250;246;28481;-78
2023/03/10 02:32:06;;;;;;;2.20;1.30;;;8.70;99.90;;;;;;477055;248;28238;-77
2023/03/10 02:34:07;;;;;;;1.43;1.33;;;8.70;99.90;;;;;;480126;247;27814;-78
2023/03/10 02:36:08;;;;;;;1.53;1.27;;;8.70;99.90;;;;;;480223;247;27729;-77
2023/03/10 02:38:09;;;;;;;6.47;1.60;;;8.70;99.90;;;;;;477040;248;27827;-77
2023/03/10 02:40:11;;;;;;;2.73;1.50;;;8.70;99.90;;;;;;480238;246;27872;-78
2023/03/10 02:42:12;;;;;;;5.93;1.73;;;8.70;99.90;;;;;;477062;248;27817;-77
2023/03/10 02:44:13;;;;;;;3.47;1.50;;;8.70;99.90;;;;;;480201;245;27905;-78
2023/03/10 02:46:14;;;;;;;4.13;1.40;;;8.70;99.90;;;;;;477053;247;27761;-77
2023/03/10 02:48:16;;;;;;;6.97;1.60;;;8.70;99.90;;;;;;480221;246;27935;-77
2023/03/10 02:50:17;;;;;;;4.43;1.60;;;8.70;99.90;;;;;;477026;248;27690;-78
2023/03/10 02:52:19;;;;;;;2.70;1.40;;;8.70;99.90;;;;;;480280;246;27830;-78
2023/03/10 02:54:20;;;;;;;1.77;1.67;;;8.70;99.90;;;;;;476984;248;27577;-77
2023/03/10 02:56:21;;;;;;;2.57;1.50;;;8.70;99.90;;;;;;480263;246;28061;-77
2023/03/10 02:58:22;;;;;;;4.33;1.77;;;8.70;99.90;;;;;;477071;248;27770;-77
2023/03/10 03:00:24;;;;;;;2.47;1.40;;;8.70;99.90;;;;;;480220;246;28492;-79
2023/03/10 03:02:25;;;;;;;2.07;1.40;;;8.70;99.90;;;;;;477040;248;27926;-77
2023/03/10 03:04:26;;;;;;;2.17;1.50;;;8.70;99.90;;;;;;480253;246;28482;-77
2023/03/10 03:06:27;;;;;;;3.60;1.80;;;8.70;99.90;;;;;;477096;248;28365;-78
2023/03/10 03:08:29;;;;;;;2.40;1.40;;;8.70;99.90;;;;;;480235;247;27846;-77
2023/03/10 03:10:30;;;;;;;4.67;1.63;;;8.70;99.90;;;;;;477019;248;27370;-77
2023/03/10 03:12:31;;;;;;;3.80;1.40;;;8.60;99.90;;;;;;480170;246;27889;-77
2023/03/10 03:14:32;;;;;;;2.93;1.33;;;8.50;99.90;;;;;;477002;248;27788;-77
2023/03/10 03:16:34;;;;;;;2.40;1.20;;;8.50;99.90;;;;;;480249;247;28260;-82
2023/03/10 03:18:35;;;;;;;3.87;1.50;;;8.50;99.90;;;;;;477078;248;27658;-78
2023/03/10 03:20:36;;;;;;;6.97;1.50;;;8.50;99.90;;;;;;480224;246;27772;-77
2023/03/10 03:22:37;;;;;;;6.73;1.90;;;8.50;99.90;;;;;;477056;248;27742;-77
2023/03/10 03:24:39;;;;;;;6.53;1.90;;;8.50;99.90;;;;;;480154;247;27905;-78
2023/03/10 03:26:40;;;;;;;12.47;2.80;;;8.50;99.90;;;;;;477061;249;28177;-77
2023/03/10 03:28:41;;;;;;;6.40;1.67;;;8.50;99.90;;;;;;480301;246;28337;-78
2023/03/10 03:30:42;;;;;;;6.33;2.00;;;8.50;99.90;;;;;;477002;248;28327;-78
2023/03/10 03:32:44;;;;;;;6.90;1.83;;;8.50;99.90;;;;;;480187;246;28587;-77
2023/03/10 03:34:45;;;;;;;9.37;2.40;;;8.50;99.90;;;;;;476998;248;28306;-77
2023/03/10 03:36:46;;;;;;;6.23;1.70;;;8.50;99.90;;;;;;480256;246;28103;-78
2023/03/10 03:38:47;;;;;;;6.40;1.77;;;8.40;99.90;;;;;;477052;248;27857;-77
2023/03/10 03:40:49;;;;;;;3.87;1.47;;;8.40;99.90;;;;;;480229;247;27911;-77
2023/03/10 03:42:50;;;;;;;3.33;1.40;;;8.40;99.90;;;;;;477057;248;27965;-78
2023/03/10 03:44:51;;;;;;;4.10;1.30;;;8.30;99.90;;;;;;480212;247;27905;-77
2023/03/10 03:46:52;;;;;;;1.90;1.30;;;8.20;99.90;;;;;;477086;248;27478;-76
2023/03/10 03:48:54;;;;;;;2.23;1.57;;;8.10;99.90;;;;;;480259;243;28154;-77
2023/03/10 03:50:55;;;;;;;5.17;1.60;;;8.20;99.90;;;;;;477058;248;27899;-77
2023/03/10 03:52:56;;;;;;;6.23;1.67;;;8.20;99.90;;;;;;480219;247;27725;-76
2023/03/10 03:54:57;;;;;;;7.60;1.57;;;8.10;99.90;;;;;;477007;248;27560;-78
2023/03/10 03:56:59;;;;;;;3.50;1.70;;;8.00;99.90;;;;;;480256;246;27787;-78
2023/03/10 03:59:00;;;;;;;5.73;1.70;;;8.00;99.90;;;;;;477052;248;27856;-76
2023/03/10 04:01:01;;;;;;;2.87;1.77;;;8.00;99.90;;;;;;480235;246;28498;-78
2023/03/10 04:03:02;;;;;;;5.87;1.40;;;8.10;99.90;;;;;;477009;248;28226;-77
2023/03/10 04:05:04;;;;;;;3.23;1.50;;;8.20;99.90;;;;;;480264;246;28416;-77
2023/03/10 04:07:06;;;;;;;4.90;1.70;;;8.20;99.90;;;;;;480286;247;27914;-77
2023/03/10 04:09:09;;;;;;;6.67;1.60;;;8.20;99.90;;;;;;480253;247;27723;-77
2023/03/10 04:11:08;;;;;;;4.20;1.90;;;8.20;99.90;;;;;;476852;249;28006;-77
2023/03/10 04:13:09;;;;;;;6.27;1.97;;;8.20;99.90;;;;;;480021;247;28370;-77
2023/03/10 04:15:11;;;;;;;3.07;1.67;;;8.20;99.90;;;;;;480227;247;29070;-77
2023/03/10 04:17:12;;;;;;;5.73;1.67;;;8.30;99.90;;;;;;477052;248;28011;-77
2023/03/10 04:19:13;;;;;;;3.47;1.53;;;8.30;99.90;;;;;;480257;247;27902;-79
2023/03/10 04:21:16;;;;;;;4.57;1.93;;;8.30;99.90;;;;;;477052;248;27796;-77
2023/03/10 04:23:16;;;;;;;2.93;1.40;;;8.30;99.90;;;;;;480072;247;27896;-78
2023/03/10 04:25:17;;;;;;;5.63;1.50;;;8.40;99.90;;;;;;477027;248;27772;-78
2023/03/10 04:27:18;;;;;;;3.77;1.83;;;8.40;99.90;;;;;;480253;246;27971;-78
2023/03/10 04:29:23;;;;;;;4.30;1.83;;;8.40;99.90;;;;;;477053;249;27529;-78
2023/03/10 04:31:21;;;;;;;7.57;1.57;;;8.40;99.90;;;;;;479932;247;27741;-77
2023/03/10 04:33:22;;;;;;;5.67;1.70;;;8.40;99.90;;;;;;477054;248;28028;-76
2023/03/10 04:35:23;;;;;;;3.43;1.60;;;8.40;99.90;;;;;;480210;246;27632;-77
2023/03/10 04:37:26;;;;;;;6.03;1.73;;;8.40;99.90;;;;;;477042;248;27895;-78
2023/03/10 04:39:26;;;;;;;7.87;1.80;;;8.40;99.90;;;;;;479988;247;27917;-78
2023/03/10 04:41:27;;;;;;;6.43;1.77;;;8.40;99.90;;;;;;477070;248;27717;-77
2023/03/10 04:43:29;;;;;;;3.43;1.97;;;8.40;99.90;;;;;;480237;246;28445;-78
2023/03/10 04:45:30;;;;;;;4.60;1.73;;;8.40;99.90;;;;;;477054;248;28402;-78
2023/03/10 04:47:31;;;;;;;3.40;2.03;;;8.50;99.90;;;;;;480259;246;28356;-77
2023/03/10 04:49:32;;;;;;;6.20;1.70;;;8.50;99.90;;;;;;477071;247;28407;-78
2023/03/10 04:51:33;;;;;;;8.63;2.43;;;8.50;99.90;;;;;;480236;246;27816;-78
2023/03/10 04:53:36;;;;;;;10.90;2.00;;;8.50;99.90;;;;;;477060;248;27863;-77
2023/03/10 04:55:37;;;;;;;5.60;2.17;;;8.50;99.90;;;;;;480262;246;28237;-77
2023/03/10 04:57:38;;;;;;;14.93;2.73;;;8.50;99.90;;;;;;477091;248;27980;-77
2023/03/10 04:59:39;;;;;;;4.73;2.03;;;8.50;99.90;;;;;;480263;247;28405;-78
2023/03/10 05:01:41;;;;;;;6.80;2.27;;;8.40;99.90;;;;;;477075;248;27851;-77
2023/03/10 05:03:42;;;;;;;16.90;2.47;;;8.40;99.90;;;;;;480204;246;27518;-78
2023/03/10 05:05:43;;;;;;;2.60;1.70;;;8.40;99.90;;;;;;477051;248;27841;-76
2023/03/10 05:07:44;;;;;;;9.43;2.43;;;8.40;99.90;;;;;;477099;247;27891;-79
2023/03/10 05:09:47;;;;;;;8.60;2.20;;;8.30;99.90;;;;;;480242;246;27955;-77
2023/03/10 05:11:47;;;;;;;10.13;2.20;;;8.30;99.90;;;;;;476995;248;27826;-77
2023/03/10 05:13:48;;;;;;;6.27;2.00;;;8.40;99.90;;;;;;480248;246;27889;-77
2023/03/10 05:15:49;;;;;;;13.63;2.13;;;8.30;99.90;;;;;;477091;248;27860;-77
2023/03/10 05:17:51;;;;;;;7.67;1.93;;;8.40;99.90;;;;;;480305;246;28059;-77
2023/03/10 05:19:53;;;;;;;5.67;2.03;;;8.40;99.90;;;;;;477093;248;27786;-78
2023/03/10 05:21:53;;;;;;;5.87;1.90;;;8.40;99.90;;;;;;480110;247;28044;-78
2023/03/10 05:23:54;;;;;;;7.73;1.87;;;8.40;99.90;;;;;;480218;247;27916;-78
2023/03/10 05:25:56;;;;;;;14.37;2.50;;;8.40;99.90;;;;;;477039;248;28150;-78
2023/03/10 05:27:57;;;;;;;6.90;2.03;;;8.40;99.90;;;;;;480245;246;28264;-78
2023/03/10 05:29:59;;;;;;;4.77;1.70;;;8.50;99.90;;;;;;477069;248;28246;-78
2023/03/10 05:32:00;;;;;;;7.63;1.87;;;8.50;99.90;;;;;;480247;246;28487;-75
2023/03/10 05:34:01;;;;;;;12.20;2.23;;;8.50;99.90;;;;;;477069;248;28223;-77
2023/03/10 05:36:02;;;;;;;4.00;1.53;;;8.50;99.90;;;;;;480227;242;28356;-78
2023/03/10 05:38:04;;;;;;;7.60;2.13;;;8.50;99.90;;;;;;476991;248;27862;-78
2023/03/10 05:40:05;;;;;;;11.07;2.67;;;8.50;99.90;;;;;;480241;247;27994;-77
2023/03/10 05:42:06;;;;;;;5.97;1.97;;;8.50;99.90;;;;;;476997;248;27808;-77
2023/03/10 05:44:07;;;;;;;6.17;2.10;;;8.50;99.90;;;;;;480240;246;27791;-78
2023/03/10 05:46:09;;;;;;;4.50;2.07;;;8.50;99.90;;;;;;477046;248;27870;-78
2023/03/10 05:48:10;;;;;;;9.10;2.50;;;8.50;99.90;;;;;;480162;246;27902;-78
2023/03/10 05:50:13;;;;;;;6.90;2.50;;;8.50;99.90;;;;;;477048;248;27668;-77
2023/03/10 05:52:12;;;;;;;9.87;2.10;;;8.50;99.90;;;;;;480121;247;27798;-78
2023/03/10 05:54:15;;;;;;;6.37;2.00;;;8.50;99.90;;;;;;477080;248;27792;-78
2023/03/10 05:56:16;;;;;;;11.50;2.83;;;8.50;99.90;;;;;;480212;246;27887;-77
2023/03/10 05:58:17;;;;;;;6.20;2.50;;;8.50;99.90;;;;;;476990;248;27760;-77
2023/03/10 06:00:19;;;;;;;13.60;2.80;;;8.50;99.90;;;;;;480206;246;27948;-77
2023/03/10 06:02:20;;;;;;;10.97;2.67;;;8.50;99.90;;;;;;480247;247;28002;-78
2023/03/10 06:04:21;;;;;;;5.63;1.80;;;8.50;99.90;;;;;;477069;248;27631;-78
2023/03/10 06:06:22;;;;;;;8.23;2.27;;;8.50;99.90;;;;;;480219;246;28029;-78
2023/03/10 06:08:24;;;;;;;11.83;2.17;;;8.50;99.90;;;;;;477020;248;27850;-78
2023/03/10 06:10:25;;;;;;;6.53;2.63;;;8.50;99.90;;;;;;480194;246;27921;-78
2023/03/10 06:12:26;;;;;;;6.83;2.20;;;8.50;99.90;;;;;;477032;248;28444;-78
2023/03/10 06:14:27;;;;;;;6.23;1.90;;;8.50;99.90;;;;;;480241;246;28267;-78
2023/03/10 06:16:29;;;;;;;6.47;2.53;;;8.50;99.90;;;;;;477015;248;27985;-81
2023/03/10 06:18:30;;;;;;;11.53;2.60;;;8.50;99.90;;;;;;480186;246;28324;-78
2023/03/10 06:20:31;;;;;;;17.13;2.77;;;8.50;99.90;;;;;;477067;248;27809;-78
2023/03/10 06:22:33;;;;;;;7.97;2.27;;;8.50;99.90;;;;;;480261;246;27675;-78
2023/03/10 06:24:34;;;;;;;9.53;2.33;;;8.50;99.90;;;;;;477051;248;28241;-78
2023/03/10 06:26:35;;;;;;;7.20;2.30;;;8.50;99.90;;;;;;480238;246;28472;-79
2023/03/10 06:28:36;;;;;;;6.20;2.27;;;8.50;99.90;;;;;;477028;248;28218;-78
2023/03/10 06:30:38;;;;;;;8.53;2.20;;;8.40;99.90;;;;;;480201;246;28468;-77
2023/03/10 06:32:39;;;;;;;6.30;1.80;;;8.40;99.90;;;;;;477062;248;27843;-78
2023/03/10 06:34:40;;;;;;;10.07;2.43;;;8.40;99.90;;;;;;480221;246;27510;-77
2023/03/10 06:36:42;;;;;;;7.20;2.07;;;8.50;99.90;;;;;;477013;248;27657;-79
2023/03/10 06:38:43;;;;;;;4.83;2.40;;;8.60;99.90;;;;;;480240;247;27852;-79
2023/03/10 06:40:44;;;;;;;5.10;1.80;;;8.60;99.90;;;;;;477095;248;28038;-78
2023/03/10 06:42:47;;;;;;;4.90;1.77;;;8.70;99.90;;;;;;480241;246;27715;-78
2023/03/10 06:44:48;;;;;;;6.63;1.60;;;8.70;99.90;;;;;;477023;248;27808;-75
2023/03/10 06:46:49;;;;;;;6.30;1.97;;;8.70;99.90;;;;;;480272;246;27800;-76
2023/03/10 06:48:51;;;;;;;3.67;1.57;;;8.60;99.90;;;;;;477048;248;27927;-79
2023/03/10 06:50:52;;;;;;;1.93;1.60;;;8.60;99.90;;;;;;479990;247;28350;-78
2023/03/10 06:52:53;;;;;;;3.77;1.90;;;8.50;99.90;;;;;;476983;248;28222;-79
2023/03/10 06:54:54;;;;;;;6.30;1.30;;;8.60;99.90;;;;;;480261;247;28426;-79
2023/03/10 06:56:56;;;;;;;4.83;1.97;;;8.60;99.90;;;;;;480263;247;28382;-79
2023/03/10 06:58:57;;;;;;;3.77;1.87;;;8.50;99.90;;;;;;480260;247;28347;-78
2023/03/10 07:00:58;;;;;;;1.60;1.50;;;8.40;99.90;;;;;;477046;248;27951;-78
2023/03/10 07:02:59;;;;;;;4.90;1.90;;;8.30;99.90;;;;;;480188;246;27891;-79
2023/03/10 07:05:01;;;;;;;2.90;1.47;;;8.30;99.90;;;;;;477001;248;27865;-78
2023/03/10 07:07:02;;;;;;;3.97;1.47;;;8.30;99.90;;;;;;480134;245;27778;-79
2023/03/10 07:09:03;;;;;;;6.83;2.07;;;8.20;99.90;;;;;;480241;247;27952;-78
2023/03/10 07:11:04;;;;;;;8.23;1.77;;;8.10;99.90;;;;;;477015;248;27855;-79
2023/03/10 07:13:06;;;;;;;5.97;1.83;;;8.10;99.90;;;;;;480129;247;27778;-78
2023/03/10 07:15:07;;;;;;;3.50;1.30;;;8.00;99.90;;;;;;480184;247;27919;-78
2023/03/10 07:17:08;;;;;;;5.87;2.00;;;8.00;99.90;;;;;;480246;247;27907;-79
2023/03/10 07:19:10;;;;;;;5.00;1.57;;;8.00;99.90;;;;;;477013;248;27817;-78
2023/03/10 07:21:11;;;;;;;5.40;2.00;;;7.90;99.90;;;;;;480249;246;27930;-74
2023/03/10 07:23:12;;;;;;;2.67;1.40;;;7.80;99.90;;;;;;477055;248;27820;-78
2023/03/10 07:25:13;;;;;;;3.17;1.60;;;7.80;99.90;;;;;;480248;246;28012;-78
2023/03/10 07:27:15;;;;;;;4.30;1.40;;;7.80;99.90;;;;;;477003;248;28268;-78
2023/03/10 07:29:16;;;;;;;3.87;1.40;;;7.80;99.90;;;;;;480234;246;28898;-78
2023/03/10 07:31:17;;;;;;;2.77;1.23;;;7.80;99.90;;;;;;477070;248;28243;-77
2023/03/10 07:33:18;;;;;;;3.70;1.40;;;7.80;99.90;;;;;;480225;246;28534;-79
2023/03/10 07:35:20;;;;;;;2.93;1.20;;;7.70;99.90;;;;;;477044;248;28247;-77
2023/03/10 07:37:21;;;;;;;1.73;1.00;;;7.80;99.90;;;;;;480230;246;27675;-79
2023/03/10 07:39:22;;;;;;;4.17;1.60;;;7.80;99.90;;;;;;476984;248;27811;-78
2023/03/10 07:41:23;;;;;;;1.30;1.20;;;7.90;99.90;;;;;;480221;246;27921;-78
2023/03/10 07:43:25;;;;;;;3.23;1.17;;;7.80;99.90;;;;;;477027;248;27784;-78
2023/03/10 07:45:26;;;;;;;2.43;1.30;;;7.70;99.90;;;;;;480043;247;27869;-78
2023/03/10 07:47:27;;;;;;;4.47;1.20;;;7.70;99.90;;;;;;480206;247;27984;-78
2023/03/10 07:49:28;;;;;;;1.30;1.20;;;7.70;99.90;;;;;;476972;248;27786;-78
2023/03/10 07:51:30;;;;;;;4.93;1.77;;;7.70;99.90;;;;;;480114;247;28029;-78
2023/03/10 07:53:32;;;;;;;3.80;1.20;;;7.60;99.90;;;;;;477038;248;27830;-79
2023/03/10 07:55:32;;;;;;;2.77;1.43;;;7.60;99.90;;;;;;480209;247;27760;-78
2023/03/10 07:57:33;;;;;;;2.60;1.10;;;7.60;99.90;;;;;;480179;247;27712;-78
2023/03/10 07:59:35;;;;;;;2.00;1.50;;;7.60;99.90;;;;;;480191;247;27703;-78
2023/03/10 08:01:36;;;;;;;4.20;1.80;;;7.60;99.90;;;;;;477004;248;27907;-78
2023/03/10 08:03:39;;;;;;;3.47;1.60;;;7.60;99.90;;;;;;480186;247;27438;-78
2023/03/10 08:05:40;;;;;;;4.77;1.47;;;7.50;99.90;;;;;;477043;248;27805;-74
2023/03/10 08:07:42;;;;;;;7.47;1.80;;;7.50;99.90;;;;;;480244;246;27989;-79
2023/03/10 08:09:43;;;;;;;7.33;2.37;;;7.60;99.90;;;;;;477032;248;27875;-78
2023/03/10 08:11:44;;;;;;;6.07;1.60;;;7.70;99.90;;;;;;480229;246;28405;-77
2023/03/10 08:13:46;;;;;;;7.23;1.97;;;7.80;99.90;;;;;;477024;247;27890;-78
2023/03/10 08:15:46;;;;;;;3.43;1.50;;;7.90;99.90;;;;;;480230;246;28629;-79
2023/03/10 08:17:48;;;;;;;6.17;2.00;;;7.90;99.90;;;;;;480271;247;28406;-79
2023/03/10 08:19:49;;;;;;;3.27;1.80;;;7.90;99.90;;;;;;477059;248;28256;-77
2023/03/10 08:21:52;;;;;;;5.60;1.57;;;8.00;99.90;;;;;;480239;246;28469;-78
2023/03/10 08:23:52;;;;;;;4.63;1.80;;;7.90;99.90;;;;;;476889;249;28236;-79
2023/03/10 08:25:53;;;;;;;5.70;1.80;;;7.80;99.90;;;;;;480228;246;28292;-78
2023/03/10 08:27:54;;;;;;;5.83;1.90;;;7.70;99.90;;;;;;477032;248;28382;-78
2023/03/10 08:29:56;;;;;;;4.10;1.83;;;7.70;99.90;;;;;;480202;247;27841;-78
2023/03/10 08:31:58;;;;;;;6.30;1.80;;;7.80;99.90;;;;;;477010;248;27458;-77
2023/03/10 08:33:59;;;;;;;8.33;2.40;;;7.80;99.90;;;;;;480241;246;28365;-78
2023/03/10 08:36:00;;;;;;;4.70;1.77;;;7.90;99.90;;;;;;477060;248;28342;-77
2023/03/10 08:38:02;;;;;;;9.67;1.97;;;7.90;99.90;;;;;;480201;246;28338;-78
2023/03/10 08:40:03;;;;;;;3.33;1.47;;;7.80;99.90;;;;;;477062;248;28218;-77
2023/03/10 08:42:04;;;;;;;7.90;2.30;;;7.80;99.90;;;;;;480189;246;27844;-78
2023/03/10 08:44:05;;;;;;;5.03;2.03;;;7.80;99.90;;;;;;477065;248;27847;-78
2023/03/10 08:46:07;;;;;;;8.90;2.20;;;7.90;99.90;;;;;;480254;246;28017;-78
2023/03/10 08:48:08;;;;;;;6.17;2.00;;;8.00;99.90;;;;;;477032;248;27795;-77
2023/03/10 08:50:09;;;;;;;8.27;2.27;;;8.00;99.90;;;;;;480226;246;27987;-78
2023/03/10 08:52:10;;;;;;;3.80;1.87;;;8.10;99.90;;;;;;477052;248;27946;-78
2023/03/10 08:54:12;;;;;;;6.43;2.20;;;8.20;99.90;;;;;;480149;246;27871;-78
2023/03/10 08:56:13;;;;;;;5.40;1.90;;;8.20;99.90;;;;;;477066;248;27700;-78
2023/03/10 08:58:14;;;;;;;10.13;1.87;;;8.10;99.90;;;;;;480251;247;28073;-78
2023/03/10 09:00:15;;;;;;;6.73;2.17;;;8.20;99.90;;;;;;477045;248;27780;-79
2023/03/10 09:02:17;;;;;;;5.80;2.13;;;8.20;99.90;;;;;;480202;246;27986;-78
2023/03/10 09:04:18;;;;;;;8.70;2.87;;;8.00;99.90;;;;;;477040;248;27993;-78
2023/03/10 09:06:19;;;;;;;9.57;2.30;;;8.00;99.90;;;;;;480249;246;28021;-79
2023/03/10 09:08:21;;;;;;;6.43;2.17;;;8.10;99.90;;;;;;480248;247;28971;-78
2023/03/10 09:10:22;;;;;;;4.70;2.00;;;8.20;99.90;;;;;;477035;248;28084;-79
2023/03/10 09:12:23;;;;;;;7.30;2.17;;;8.30;99.90;;;;;;480244;246;28515;-78
2023/03/10 09:14:24;;;;;;;11.83;2.53;;;8.40;99.90;;;;;;477071;248;28317;-78
2023/03/10 09:16:27;;;;;;;8.43;2.80;;;8.50;99.90;;;;;;480232;246;27817;-78
2023/03/10 09:18:27;;;;;;;10.83;2.80;;;8.50;99.90;;;;;;476945;249;27966;-78
2023/03/10 09:20:28;;;;;;;7.90;1.57;;;8.40;99.90;;;;;;480258;246;27570;-78
2023/03/10 09:22:29;;;;;;;4.53;1.73;;;8.40;99.90;;;;;;477060;248;27805;-78
2023/03/10 09:24:31;;;;;;;9.87;1.90;;;8.30;99.90;;;;;;480238;246;27622;-78
2023/03/10 09:26:33;;;;;;;9.17;2.20;;;8.30;99.90;;;;;;477056;248;27847;-77
2023/03/10 09:28:33;;;;;;;12.07;1.90;;;8.40;99.90;;;;;;480160;247;27882;-77
2023/03/10 09:30:36;;;;;;;3.43;1.77;;;8.40;99.90;;;;;;477081;248;27517;-78
2023/03/10 09:32:36;;;;;;;4.73;1.90;;;8.40;99.90;;;;;;480217;247;27901;-78
2023/03/10 09:34:37;;;;;;;5.50;2.13;;;8.30;99.90;;;;;;477035;248;27879;-78
2023/03/10 09:36:38;;;;;;;7.47;1.93;;;8.20;99.90;;;;;;480237;246;27887;-77
2023/03/10 09:38:40;;;;;;;7.23;1.93;;;8.20;99.90;;;;;;477022;248;27739;-78
2023/03/10 09:40:41;;;;;;;6.87;2.10;;;8.20;99.90;;;;;;480125;247;27816;-78
2023/03/10 09:42:42;;;;;;;7.23;1.80;;;8.30;99.90;;;;;;480279;247;28482;-78
2023/03/10 09:44:43;;;;;;;4.97;1.67;;;8.30;99.90;;;;;;477060;248;28318;-78
2023/03/10 09:46:45;;;;;;;6.77;2.23;;;8.30;99.90;;;;;;480195;246;28566;-77
2023/03/10 09:48:46;;;;;;;9.13;1.93;;;8.50;99.90;;;;;;477073;248;28198;-79
2023/03/10 09:50:47;;;;;;;5.53;2.20;;;8.60;99.90;;;;;;480229;246;28294;-78
2023/03/10 09:52:48;;;;;;;7.60;2.00;;;8.60;99.90;;;;;;477069;248;28275;-78
2023/03/10 09:54:50;;;;;;;4.80;1.90;;;8.50;99.90;;;;;;480196;246;27881;-78
2023/03/10 09:56:51;;;;;;;8.77;2.20;;;8.50;99.90;;;;;;477028;248;27827;-78
2023/03/10 09:58:52;;;;;;;7.53;1.90;;;8.40;99.90;;;;;;480224;246;27549;-78
2023/03/10 10:00:53;;;;;;;4.67;1.80;;;8.50;99.90;;;;;;477055;248;27764;-78
2023/03/10 10:02:55;;;;;;;4.13;1.80;;;8.50;99.90;;;;;;480239;246;27936;-78
2023/03/10 10:04:56;;;;;;;9.20;2.00;;;8.60;99.90;;;;;;477017;248;27766;-78
2023/03/10 10:06:57;;;;;;;7.10;2.50;;;8.60;99.90;;;;;;480190;246;27931;-78
2023/03/10 10:08:58;;;;;;;6.50;2.40;;;8.70;99.90;;;;;;477037;248;27585;-77
2023/03/10 10:11:00;;;;;;;9.47;2.40;;;8.80;99.90;;;;;;480294;246;27889;-78
2023/03/10 10:13:01;;;;;;;3.50;1.70;;;8.80;99.90;;;;;;476995;248;27799;-77
2023/03/10 10:15:02;;;;;;;4.83;2.10;;;8.70;99.90;;;;;;480139;246;27888;-78
2023/03/10 10:17:04;;;;;;;4.97;2.00;;;8.60;99.90;;;;;;477019;248;27721;-78
2023/03/10 10:19:05;;;;;;;5.60;1.93;;;8.40;99.90;;;;;;480244;246;27861;-78
2023/03/10 10:21:07;;;;;;;4.50;2.00;;;8.30;99.90;;;;;;477059;248;28174;-77
2023/03/10 10:23:08;;;;;;;5.03;1.73;;;8.30;99.90;;;;;;480234;246;28473;-78
2023/03/10 10:25:12;;;;;;;7.20;2.30;;;8.30;99.90;;;;;;480237;247;28526;-78
2023/03/10 10:27:16;;;;;;;9.57;2.10;;;8.40;99.90;;;;;;477056;248;27713;-78
2023/03/10 10:29:15;;;;;;;8.20;2.20;;;8.50;99.90;;;;;;480029;247;27902;-77
2023/03/10 10:31:16;;;;;;;6.13;2.00;;;8.50;99.90;;;;;;477031;248;27555;-77
2023/03/10 10:33:17;;;;;;;1.70;1.60;;;8.60;99.90;;;;;;480239;247;27930;-77
2023/03/10 10:35:18;;;;;;;5.77;1.57;;;8.80;99.90;;;;;;477054;248;27908;-78
2023/03/10 10:37:20;;;;;;;4.43;1.60;;;8.60;99.90;;;;;;480234;246;28031;-78